Time;durP1;ratioP1;P1;durP2;ratioP2;P2;SDS_P1;SDS_P2;PMS_P1;PMS_P2;Temp;Humidity;BMP_temperature;BMP_pressure;BME280_temperature;BME280_humidity;BME280_pressure;Samples;Min_cycle;Max_cycle;Signal;HPM_P1;HPM_P2
2021/03/26 00:00:46;;;;;;;471.40;253.10;;;;;;;;;;5009471;28;20109;-74
2021/03/26 00:03:14;;;;;;;471.95;251.93;;;;;;;;;;4990728;28;20404;-77
2021/03/26 00:05:41;;;;;;;474.38;251.02;;;;;;;;;;5010469;28;20135;-75
2021/03/26 00:08:07;;;;;;;481.58;253.43;;;;;;;;;;5008182;28;20026;-76
2021/03/26 00:10:34;;;;;;;481.70;254.68;;;;;;;;;;4989322;28;20046;-74
2021/03/26 00:13:01;;;;;;;479.95;252.80;;;;;;;;;;5007985;28;20018;-74
2021/03/26 00:15:27;;;;;;;476.10;249.40;;;;;;;;;;5007654;28;20088;-74
2021/03/26 00:17:53;;;;;;;481.80;252.82;;;;;;;;;;5007989;28;20077;-75
2021/03/26 00:20:19;;;;;;;482.45;254.63;;;;;;;;;;4990475;28;20037;-75
2021/03/26 00:22:45;;;;;;;474.23;250.77;;;;;;;;;;4991342;28;20025;-75
2021/03/26 00:25:11;;;;;;;471.33;250.02;;;;;;;;;;5009718;28;20658;-75
2021/03/26 00:27:38;;;;;;;476.70;246.88;;;;;;;;;;4989924;28;20111;-74
2021/03/26 00:30:05;;;;;;;482.80;257.73;;;;;;;;;;5008382;28;20054;-74
2021/03/26 00:32:31;;;;;;;490.98;260.60;;;;;;;;;;5009279;28;20465;-74
2021/03/26 00:34:57;;;;;;;469.85;252.30;;;;;;;;;;5010795;28;20096;-75
2021/03/26 00:37:23;;;;;;;484.95;257.33;;;;;;;;;;5001659;28;20409;-75
2021/03/26 00:39:49;;;;;;;478.50;253.75;;;;;;;;;;4985671;28;20061;-75
2021/03/26 00:42:16;;;;;;;481.17;257.38;;;;;;;;;;4994677;28;20397;-75
2021/03/26 00:44:42;;;;;;;473.98;253.05;;;;;;;;;;4991977;28;20038;-74
2021/03/26 00:47:08;;;;;;;469.92;250.50;;;;;;;;;;4995997;28;20406;-74
2021/03/26 00:49:34;;;;;;;470.80;251.70;;;;;;;;;;5009690;28;20084;-74
2021/03/26 00:52:00;;;;;;;463.35;246.25;;;;;;;;;;4993060;28;20049;-74
2021/03/26 00:54:26;;;;;;;472.33;251.55;;;;;;;;;;5003323;28;20026;-75
2021/03/26 00:56:52;;;;;;;467.13;250.95;;;;;;;;;;4995932;28;20092;-74
2021/03/26 00:59:18;;;;;;;467.98;249.93;;;;;;;;;;5008821;28;20050;-74
2021/03/26 01:01:43;;;;;;;470.48;254.30;;;;;;;;;;4992268;28;20429;-74
2021/03/26 01:04:09;;;;;;;468.23;258.65;;;;;;;;;;5008333;28;20112;-74
2021/03/26 01:06:35;;;;;;;476.08;254.30;;;;;;;;;;4983981;28;20042;-74
2021/03/26 01:09:02;;;;;;;473.40;251.80;;;;;;;;;;5000365;28;20370;-75
2021/03/26 01:11:30;;;;;;;468.88;252.70;;;;;;;;;;4998351;28;20041;-74
2021/03/26 01:13:57;;;;;;;472.40;256.20;;;;;;;;;;4987201;28;20091;-74
2021/03/26 01:16:24;;;;;;;476.17;256.60;;;;;;;;;;5009027;28;20042;-74
2021/03/26 01:18:50;;;;;;;470.80;256.35;;;;;;;;;;4993016;28;20113;-74
2021/03/26 01:21:18;;;;;;;469.48;251.13;;;;;;;;;;4995889;28;20446;-74
2021/03/26 01:23:45;;;;;;;480.90;262.55;;;;;;;;;;4995430;28;20033;-74
2021/03/26 01:26:11;;;;;;;480.48;256.38;;;;;;;;;;4985407;28;20046;-73
2021/03/26 01:28:37;;;;;;;481.58;257.27;;;;;;;;;;4995249;28;20050;-75
2021/03/26 01:31:04;;;;;;;480.02;248.13;;;;;;;;;;4991032;28;20042;-74
2021/03/26 01:33:30;;;;;;;477.17;255.88;;;;;;;;;;4992292;28;20026;-74
2021/03/26 01:35:56;;;;;;;475.65;252.60;;;;;;;;;;5009020;28;20044;-74
2021/03/26 01:38:23;;;;;;;484.35;259.60;;;;;;;;;;4995412;28;20025;-75
2021/03/26 01:40:58;;;;;;;484.50;259.52;;;;;;;;;;4972712;28;20113;-74
2021/03/26 01:43:26;;;;;;;471.75;249.30;;;;;;;;;;4990314;28;20540;-75
2021/03/26 01:45:52;;;;;;;477.92;250.10;;;;;;;;;;5002176;28;20053;-74
2021/03/26 01:48:32;;;;;;;487.48;275.38;;;;;;;;;;4991542;28;20034;-75
2021/03/26 01:51:00;;;;;;;472.38;254.00;;;;;;;;;;4990696;28;20064;-75
2021/03/26 01:53:26;;;;;;;477.98;261.00;;;;;;;;;;5009193;28;20064;-75
2021/03/26 01:55:54;;;;;;;473.50;249.57;;;;;;;;;;5006806;28;20046;-74
2021/03/26 01:58:22;;;;;;;477.27;266.45;;;;;;;;;;4990806;28;20049;-74
2021/03/26 02:00:49;;;;;;;476.58;263.90;;;;;;;;;;4999001;28;20057;-74
2021/03/26 02:03:26;;;;;;;470.50;257.30;;;;;;;;;;4998039;28;20113;-74
2021/03/26 02:05:53;;;;;;;472.50;256.08;;;;;;;;;;4995471;28;20034;-75
2021/03/26 02:08:21;;;;;;;474.98;253.98;;;;;;;;;;4993022;28;20057;-76
2021/03/26 02:10:48;;;;;;;480.55;266.38;;;;;;;;;;4990034;28;20136;-73
2021/03/26 02:13:20;;;;;;;477.73;254.25;;;;;;;;;;4987764;28;20011;-74
2021/03/26 02:15:48;;;;;;;477.30;261.00;;;;;;;;;;4991164;28;20042;-74
2021/03/26 02:18:26;;;;;;;481.55;266.67;;;;;;;;;;4991782;28;20080;-74
2021/03/26 02:21:02;;;;;;;476.58;257.13;;;;;;;;;;5005073;28;20045;-74
2021/03/26 02:23:29;;;;;;;493.48;266.67;;;;;;;;;;4990789;28;20537;-74
2021/03/26 02:25:56;;;;;;;483.88;263.20;;;;;;;;;;5004811;28;20053;-74
2021/03/26 02:28:22;;;;;;;479.05;259.27;;;;;;;;;;4994410;28;20054;-74
2021/03/26 02:30:52;;;;;;;480.90;258.23;;;;;;;;;;5001940;28;20506;-74
2021/03/26 02:33:18;;;;;;;;;;;;;;;;;;4989199;28;20026;-74
2021/03/26 02:35:49;;;;;;;472.30;247.48;;;;;;;;;;4991624;28;20452;-75
2021/03/26 02:38:25;;;;;;;479.88;251.88;;;;;;;;;;5005306;28;20055;-74
2021/03/26 02:41:09;;;;;;;481.77;256.23;;;;;;;;;;5010374;28;20060;-75
2021/03/26 02:44:04;;;;;;;478.73;254.73;;;;;;;;;;5007194;28;20079;-74
2021/03/26 02:46:37;;;;;;;478.77;258.45;;;;;;;;;;4979861;28;20050;-74
2021/03/26 02:49:11;;;;;;;484.25;252.88;;;;;;;;;;4984244;28;20076;-74
2021/03/26 02:51:40;;;;;;;482.67;250.13;;;;;;;;;;4976417;28;20050;-75
2021/03/26 02:54:10;;;;;;;489.23;257.75;;;;;;;;;;4996043;28;20026;-75
2021/03/26 02:56:46;;;;;;;488.33;259.80;;;;;;;;;;5006222;28;20210;-74
2021/03/26 02:59:17;;;;;;;486.10;262.73;;;;;;;;;;5003033;28;20072;-75
2021/03/26 03:01:48;;;;;;;488.67;260.08;;;;;;;;;;5011075;28;20539;-74
2021/03/26 03:04:19;;;;;;;478.98;254.52;;;;;;;;;;4989783;28;20512;-74
2021/03/26 03:06:54;;;;;;;487.08;265.33;;;;;;;;;;4975435;28;20402;-75
2021/03/26 03:09:23;;;;;;;488.60;265.92;;;;;;;;;;4979965;28;20104;-74
2021/03/26 03:12:24;;;;;;;484.98;258.67;;;;;;;;;;4979076;28;20046;-74
2021/03/26 03:15:10;;;;;;;480.48;264.00;;;;;;;;;;4910777;29;20043;-74
2021/03/26 03:17:41;;;;;;;481.65;255.90;;;;;;;;;;4964771;28;20047;-74
2021/03/26 03:20:07;;;;;;;493.73;260.73;;;;;;;;;;4987954;28;20105;-74
2021/03/26 03:22:38;;;;;;;489.92;260.63;;;;;;;;;;4992559;28;20042;-74
2021/03/26 03:25:12;;;;;;;498.27;265.33;;;;;;;;;;4973407;28;20039;-74
2021/03/26 03:28:12;;;;;;;491.80;267.65;;;;;;;;;;4987807;28;20060;-74
2021/03/26 03:30:37;;;;;;;497.58;268.25;;;;;;;;;;4938528;28;20046;-75
2021/03/26 03:33:24;;;;;;;494.95;273.58;;;;;;;;;;4975613;28;20686;-75
2021/03/26 03:36:00;;;;;;;489.67;267.00;;;;;;;;;;4976354;28;20053;-74
2021/03/26 03:38:45;;;;;;;489.20;264.02;;;;;;;;;;4977183;28;20453;-74
2021/03/26 03:41:19;;;;;;;489.92;271.15;;;;;;;;;;4975757;28;20042;-74
2021/03/26 03:43:51;;;;;;;488.35;269.05;;;;;;;;;;4991152;28;20655;-76
2021/03/26 03:46:34;;;;;;;483.20;267.00;;;;;;;;;;4972037;28;20050;-74
2021/03/26 03:49:06;;;;;;;486.40;261.67;;;;;;;;;;4958910;28;20478;-74
2021/03/26 03:51:44;;;;;;;487.80;271.23;;;;;;;;;;4961600;28;20080;-73
2021/03/26 03:54:10;;;;;;;477.67;265.95;;;;;;;;;;4988379;28;20038;-74
2021/03/26 03:56:45;;;;;;;484.85;267.88;;;;;;;;;;4976287;28;20062;-74
2021/03/26 03:59:18;;;;;;;487.13;271.63;;;;;;;;;;4982684;28;20525;-74
2021/03/26 04:01:50;;;;;;;486.55;266.58;;;;;;;;;;4972706;28;20097;-75
2021/03/26 04:04:18;;;;;;;490.65;272.02;;;;;;;;;;4955491;28;20441;-74
2021/03/26 04:07:18;;;;;;;498.50;272.85;;;;;;;;;;4972037;28;20351;-74
2021/03/26 04:09:53;;;;;;;493.25;264.35;;;;;;;;;;4946225;28;20042;-75
2021/03/26 04:12:22;;;;;;;493.63;275.27;;;;;;;;;;4984460;28;20710;-74
2021/03/26 04:14:52;;;;;;;496.67;275.17;;;;;;;;;;4991896;28;20023;-73
2021/03/26 04:17:39;;;;;;;496.38;277.90;;;;;;;;;;4980912;28;20054;-75
2021/03/26 04:20:08;;;;;;;494.35;268.13;;;;;;;;;;4969967;28;20030;-75
2021/03/26 04:22:38;;;;;;;497.73;278.27;;;;;;;;;;4981543;28;20050;-75
2021/03/26 04:25:08;;;;;;;489.58;270.50;;;;;;;;;;4958561;28;20060;-74
2021/03/26 04:27:46;;;;;;;387.83;220.45;;;;;;;;;;4979465;28;20046;-75
2021/03/26 04:30:12;;;;;;;500.27;277.40;;;;;;;;;;4957772;28;20066;-75
2021/03/26 04:32:38;;;;;;;498.58;282.42;;;;;;;;;;4975737;28;20137;-74
2021/03/26 04:35:05;;;;;;;501.33;282.33;;;;;;;;;;4982753;28;20133;-75
2021/03/26 04:37:31;;;;;;;493.65;280.80;;;;;;;;;;4978451;28;20042;-75
2021/03/26 04:39:59;;;;;;;502.77;281.45;;;;;;;;;;4976147;28;20086;-75
2021/03/26 04:42:34;;;;;;;498.08;275.13;;;;;;;;;;4976826;28;20061;-75
2021/03/26 04:45:07;;;;;;;498.63;274.27;;;;;;;;;;4984023;28;20240;-75
2021/03/26 04:47:39;;;;;;;492.88;271.92;;;;;;;;;;4976516;28;20046;-74
2021/03/26 04:50:20;;;;;;;484.60;269.02;;;;;;;;;;4974458;28;20050;-75
2021/03/26 04:52:52;;;;;;;491.00;271.40;;;;;;;;;;4969418;28;20586;-74
2021/03/26 04:55:21;;;;;;;497.98;281.98;;;;;;;;;;4978169;28;20035;-74
2021/03/26 04:57:52;;;;;;;490.30;270.80;;;;;;;;;;4988588;28;20062;-74
2021/03/26 05:00:21;;;;;;;496.58;280.50;;;;;;;;;;4974194;28;20034;-75
2021/03/26 05:02:51;;;;;;;499.17;279.95;;;;;;;;;;4977083;28;20080;-75
2021/03/26 05:05:19;;;;;;;506.70;283.55;;;;;;;;;;4967023;28;20077;-74
2021/03/26 05:07:46;;;;;;;491.70;274.75;;;;;;;;;;5007277;28;20433;-75
2021/03/26 05:10:17;;;;;;;508.80;278.48;;;;;;;;;;4979804;28;20030;-74
2021/03/26 05:12:48;;;;;;;498.92;280.13;;;;;;;;;;5005996;28;20057;-74
2021/03/26 05:15:14;;;;;;;501.30;284.90;;;;;;;;;;4983095;28;20030;-75
2021/03/26 05:17:48;;;;;;;495.48;277.10;;;;;;;;;;5005051;28;20631;-75
2021/03/26 05:20:16;;;;;;;496.35;279.50;;;;;;;;;;4994471;28;20030;-75
2021/03/26 05:22:42;;;;;;;500.60;281.55;;;;;;;;;;5013018;28;20140;-75
2021/03/26 05:25:17;;;;;;;497.67;282.35;;;;;;;;;;4982597;28;20038;-74
2021/03/26 05:27:45;;;;;;;492.38;275.92;;;;;;;;;;5003900;28;20642;-73
2021/03/26 05:30:11;;;;;;;493.52;275.88;;;;;;;;;;5001780;28;20026;-74
2021/03/26 05:32:46;;;;;;;495.52;277.92;;;;;;;;;;5006793;28;20081;-74
2021/03/26 05:35:29;;;;;;;490.67;276.75;;;;;;;;;;4985151;28;20033;-74
2021/03/26 05:37:59;;;;;;;501.50;284.63;;;;;;;;;;4999252;28;20156;-74
2021/03/26 05:40:43;;;;;;;500.37;279.47;;;;;;;;;;5000800;28;20037;-74
2021/03/26 05:43:22;;;;;;;499.77;282.88;;;;;;;;;;4996472;28;20441;-74
2021/03/26 05:45:57;;;;;;;498.85;283.75;;;;;;;;;;4999175;28;20035;-74
2021/03/26 05:48:22;;;;;;;496.75;277.25;;;;;;;;;;4997758;28;20070;-74
2021/03/26 05:51:07;;;;;;;496.90;278.95;;;;;;;;;;5009459;28;20025;-74
2021/03/26 05:53:33;;;;;;;502.08;279.90;;;;;;;;;;4990481;28;20084;-74
2021/03/26 05:56:05;;;;;;;501.40;284.17;;;;;;;;;;5004957;28;20030;-74
2021/03/26 05:58:43;;;;;;;506.80;284.52;;;;;;;;;;5004211;28;20113;-74
2021/03/26 06:01:15;;;;;;;509.02;288.55;;;;;;;;;;4983193;28;20651;-75
2021/03/26 06:03:57;;;;;;;509.95;289.25;;;;;;;;;;5005859;28;21536;-75
2021/03/26 06:06:42;;;;;;;508.77;282.70;;;;;;;;;;5003772;28;20046;-74
2021/03/26 06:09:28;;;;;;;511.00;291.65;;;;;;;;;;4992566;28;20061;-74
2021/03/26 06:12:13;;;;;;;500.27;282.27;;;;;;;;;;5013032;28;20615;-73
2021/03/26 06:14:54;;;;;;;507.17;286.38;;;;;;;;;;5005365;28;20109;-75
2021/03/26 06:17:26;;;;;;;505.92;284.05;;;;;;;;;;4986271;28;20052;-75
2021/03/26 06:20:10;;;;;;;512.67;286.63;;;;;;;;;;5007305;28;20556;-75
2021/03/26 06:22:36;;;;;;;507.20;290.35;;;;;;;;;;5009811;28;20393;-73
2021/03/26 06:25:16;;;;;;;503.40;287.15;;;;;;;;;;4999065;28;20042;-74
2021/03/26 06:27:54;;;;;;;507.60;292.52;;;;;;;;;;4996611;28;20649;-75
2021/03/26 06:30:30;;;;;;;497.17;277.08;;;;;;;;;;4999228;28;20046;-74
2021/03/26 06:33:24;;;;;;;494.52;283.50;;;;;;;;;;5006408;28;20049;-74
2021/03/26 06:36:11;;;;;;;496.60;277.92;;;;;;;;;;5004177;28;20026;-74
2021/03/26 06:38:57;;;;;;;502.05;286.10;;;;;;;;;;4980059;28;20454;-73
2021/03/26 06:41:29;;;;;;;486.90;275.65;;;;;;;;;;4976121;28;20046;-74
2021/03/26 06:44:17;;;;;;;500.55;283.17;;;;;;;;;;4999155;28;20034;-73
2021/03/26 06:46:52;;;;;;;498.10;279.17;;;;;;;;;;4978857;28;20064;-74
2021/03/26 06:49:47;;;;;;;500.92;285.70;;;;;;;;;;5012014;28;20021;-74
2021/03/26 06:52:32;;;;;;;500.60;288.45;;;;;;;;;;5010076;28;20038;-74
2021/03/26 06:55:16;;;;;;;496.25;279.90;;;;;;;;;;5000113;28;20413;-74
2021/03/26 06:57:42;;;;;;;497.45;275.73;;;;;;;;;;4975235;28;20046;-75
2021/03/26 07:00:21;;;;;;;505.23;288.10;;;;;;;;;;4996440;28;20034;-75
2021/03/26 07:02:59;;;;;;;495.20;282.15;;;;;;;;;;4984206;28;20056;-73
2021/03/26 07:05:28;;;;;;;489.50;281.70;;;;;;;;;;4987229;28;20062;-74
2021/03/26 07:07:55;;;;;;;502.42;295.00;;;;;;;;;;4978650;28;20089;-75
2021/03/26 07:10:40;;;;;;;486.38;278.15;;;;;;;;;;4987140;28;20336;-75
2021/03/26 07:13:25;;;;;;;497.45;285.13;;;;;;;;;;4989616;28;20720;-74
2021/03/26 07:16:02;;;;;;;493.42;278.55;;;;;;;;;;4990018;28;20571;-74
2021/03/26 07:18:31;;;;;;;493.30;277.10;;;;;;;;;;4992454;28;20046;-74
2021/03/26 07:21:00;;;;;;;493.35;281.55;;;;;;;;;;4971053;28;20040;-75
2021/03/26 07:23:46;;;;;;;504.58;286.33;;;;;;;;;;4971073;28;20038;-74
2021/03/26 07:26:24;;;;;;;497.50;282.75;;;;;;;;;;4982636;28;20140;-74
2021/03/26 07:32:13;;;;;;;498.58;283.23;;;;;;;;;;4985120;28;20048;-74
2021/03/26 07:34:51;;;;;;;492.20;281.05;;;;;;;;;;4982093;28;20056;-75
2021/03/26 07:37:23;;;;;;;494.98;284.80;;;;;;;;;;4989819;28;20065;-75
2021/03/26 07:39:52;;;;;;;496.70;280.48;;;;;;;;;;4990859;28;20019;-74
2021/03/26 07:42:32;;;;;;;501.65;290.75;;;;;;;;;;4986393;28;20047;-74
2021/03/26 07:45:00;;;;;;;495.27;287.20;;;;;;;;;;4986516;28;20038;-74
2021/03/26 07:47:53;;;;;;;495.50;285.55;;;;;;;;;;4991469;28;20061;-74
2021/03/26 07:50:19;;;;;;;504.52;291.90;;;;;;;;;;4947527;28;20108;-74
2021/03/26 07:53:03;;;;;;;503.75;295.73;;;;;;;;;;4982372;28;20054;-75
2021/03/26 07:55:40;;;;;;;501.20;290.50;;;;;;;;;;4970223;28;20018;-74
2021/03/26 07:58:12;;;;;;;499.30;296.30;;;;;;;;;;4986840;28;20065;-75
2021/03/26 08:00:56;;;;;;;505.42;293.33;;;;;;;;;;4970256;28;20139;-76
2021/03/26 08:03:25;;;;;;;492.55;289.15;;;;;;;;;;4969352;28;20284;-73
2021/03/26 08:06:10;;;;;;;490.75;283.95;;;;;;;;;;4985751;28;20043;-75
2021/03/26 08:08:42;;;;;;;496.52;284.92;;;;;;;;;;4969196;28;20092;-74
2021/03/26 08:11:14;;;;;;;500.90;290.20;;;;;;;;;;4985625;28;20022;-74
2021/03/26 08:13:52;;;;;;;504.33;296.75;;;;;;;;;;4966969;28;20081;-74
2021/03/26 08:16:36;;;;;;;503.90;290.10;;;;;;;;;;4985859;28;20034;-74
2021/03/26 08:19:16;;;;;;;498.58;286.63;;;;;;;;;;4960384;28;20030;-75
2021/03/26 08:21:45;;;;;;;506.88;294.85;;;;;;;;;;4984305;28;20596;-75
2021/03/26 08:24:23;;;;;;;503.88;298.73;;;;;;;;;;4966795;28;20481;-75
2021/03/26 08:27:21;;;;;;;492.08;290.42;;;;;;;;;;4977793;28;20051;-74
2021/03/26 08:30:06;;;;;;;495.33;297.67;;;;;;;;;;4934801;28;20391;-75
2021/03/26 08:32:51;;;;;;;503.33;308.10;;;;;;;;;;4974021;28;20047;-74
2021/03/26 08:35:29;;;;;;;506.05;308.05;;;;;;;;;;4975576;28;20078;-75
2021/03/26 08:38:13;;;;;;;496.92;298.25;;;;;;;;;;4986566;28;20101;-74
2021/03/26 08:40:44;;;;;;;503.85;305.48;;;;;;;;;;4963853;28;20023;-74
2021/03/26 08:43:10;;;;;;;506.67;318.95;;;;;;;;;;4978019;28;20062;-75
2021/03/26 08:45:39;;;;;;;502.52;314.50;;;;;;;;;;4981171;28;20181;-74
2021/03/26 08:48:13;;;;;;;510.20;317.52;;;;;;;;;;4975292;28;20100;-74
2021/03/26 08:50:44;;;;;;;504.73;315.08;;;;;;;;;;4956249;28;20366;-75
2021/03/26 08:53:10;;;;;;;501.25;319.85;;;;;;;;;;4954442;28;20046;-74
2021/03/26 08:55:36;;;;;;;502.23;316.17;;;;;;;;;;4978736;28;20026;-74
2021/03/26 08:58:23;;;;;;;515.47;333.67;;;;;;;;;;4952568;28;20047;-74
2021/03/26 09:01:07;;;;;;;511.08;324.92;;;;;;;;;;4973689;28;20038;-74
2021/03/26 09:03:42;;;;;;;503.35;316.70;;;;;;;;;;4955262;28;20054;-73
2021/03/26 09:06:11;;;;;;;508.52;322.85;;;;;;;;;;4986859;28;20045;-74
2021/03/26 09:08:55;;;;;;;500.25;318.23;;;;;;;;;;4995227;28;20037;-75
2021/03/26 09:11:31;;;;;;;502.08;327.23;;;;;;;;;;4989297;28;23340;-74
2021/03/26 09:13:59;;;;;;;502.15;330.92;;;;;;;;;;4994457;28;20041;-75
2021/03/26 09:16:33;;;;;;;495.23;320.75;;;;;;;;;;4988341;28;20125;-75
2021/03/26 09:19:17;;;;;;;494.95;323.58;;;;;;;;;;5002309;28;20034;-74
2021/03/26 09:21:48;;;;;;;495.33;320.50;;;;;;;;;;5004233;28;20054;-75
2021/03/26 09:24:18;;;;;;;501.90;326.48;;;;;;;;;;4985138;28;20038;-75
2021/03/26 09:26:57;;;;;;;497.17;325.63;;;;;;;;;;4985543;28;20061;-74
2021/03/26 09:29:36;;;;;;;496.00;330.13;;;;;;;;;;4997493;28;20361;-74
2021/03/26 09:32:15;;;;;;;501.05;329.92;;;;;;;;;;4975406;28;20033;-76
2021/03/26 09:35:02;;;;;;;495.88;325.10;;;;;;;;;;5004193;28;20113;-75
2021/03/26 09:37:51;;;;;;;499.60;330.25;;;;;;;;;;4963688;28;20215;-75
2021/03/26 09:40:34;;;;;;;500.42;331.27;;;;;;;;;;5007043;28;20030;-75
2021/03/26 09:43:06;;;;;;;492.02;325.83;;;;;;;;;;5005623;28;20501;-76
2021/03/26 09:45:41;;;;;;;499.73;331.33;;;;;;;;;;5006165;28;20041;-74
2021/03/26 09:48:10;;;;;;;496.73;329.38;;;;;;;;;;4991715;28;20077;-75
2021/03/26 09:50:36;;;;;;;496.77;327.90;;;;;;;;;;5009349;28;20041;-75
2021/03/26 09:53:08;;;;;;;501.15;335.05;;;;;;;;;;4985578;28;20434;-76
2021/03/26 09:55:37;;;;;;;504.88;336.92;;;;;;;;;;4993802;28;20022;-74
2021/03/26 09:58:21;;;;;;;499.77;338.40;;;;;;;;;;4993917;28;20023;-74
2021/03/26 10:00:56;;;;;;;500.27;336.05;;;;;;;;;;4993946;28;20165;-74
2021/03/26 10:03:34;;;;;;;502.08;342.33;;;;;;;;;;5005665;28;20038;-76
2021/03/26 10:06:01;;;;;;;498.23;345.65;;;;;;;;;;4976316;28;20141;-75
2021/03/26 10:08:51;;;;;;;503.75;348.30;;;;;;;;;;4975948;28;20537;-74
2021/03/26 10:11:20;;;;;;;501.52;342.48;;;;;;;;;;4956405;28;20114;-74
2021/03/26 10:14:16;;;;;;;500.45;341.10;;;;;;;;;;4988209;28;20030;-74
2021/03/26 10:16:47;;;;;;;500.63;342.60;;;;;;;;;;4947637;28;20046;-75
2021/03/26 10:19:17;;;;;;;498.40;340.65;;;;;;;;;;4988928;28;20015;-74
2021/03/26 10:21:49;;;;;;;500.42;335.30;;;;;;;;;;4975640;28;20027;-74
2021/03/26 10:24:24;;;;;;;507.58;344.42;;;;;;;;;;4972048;28;20058;-74
2021/03/26 10:26:52;;;;;;;499.50;335.15;;;;;;;;;;4971909;28;20049;-73
2021/03/26 10:29:24;;;;;;;497.60;326.30;;;;;;;;;;4960378;28;20032;-75
2021/03/26 10:31:51;;;;;;;507.10;342.10;;;;;;;;;;4968970;28;20439;-76
2021/03/26 10:34:29;;;;;;;495.85;342.30;;;;;;;;;;4969705;28;20046;-74
2021/03/26 10:37:04;;;;;;;493.58;336.33;;;;;;;;;;4961303;28;20402;-75
2021/03/26 10:39:42;;;;;;;499.92;342.40;;;;;;;;;;4989713;28;20037;-74
2021/03/26 10:42:11;;;;;;;500.10;348.45;;;;;;;;;;4989327;28;20023;-75
2021/03/26 10:45:02;;;;;;;502.58;348.67;;;;;;;;;;4979161;28;20053;-74
2021/03/26 10:47:40;;;;;;;501.42;336.42;;;;;;;;;;4971403;28;20026;-75
2021/03/26 10:50:12;;;;;;;490.73;327.65;;;;;;;;;;4959124;28;20066;-75
2021/03/26 10:52:44;;;;;;;493.17;327.08;;;;;;;;;;4970770;28;20023;-74
2021/03/26 10:55:18;;;;;;;481.70;320.35;;;;;;;;;;4972160;28;20110;-74
2021/03/26 10:57:57;;;;;;;486.08;321.80;;;;;;;;;;4973687;28;20772;-75
2021/03/26 11:00:29;;;;;;;496.77;334.13;;;;;;;;;;4993043;28;20024;-74
2021/03/26 11:02:55;;;;;;;489.92;330.83;;;;;;;;;;4976189;28;20037;-76
2021/03/26 11:05:36;;;;;;;499.73;341.70;;;;;;;;;;4977932;28;20050;-75
2021/03/26 11:08:02;;;;;;;492.70;328.10;;;;;;;;;;4989287;28;20042;-75
2021/03/26 11:10:30;;;;;;;502.38;341.17;;;;;;;;;;4994440;28;20518;-74
2021/03/26 11:13:12;;;;;;;495.27;327.77;;;;;;;;;;4998850;28;20101;-74
2021/03/26 11:15:39;;;;;;;493.05;329.00;;;;;;;;;;5003069;28;20454;-74
2021/03/26 11:18:14;;;;;;;501.80;336.35;;;;;;;;;;5005115;28;20040;-74
2021/03/26 11:20:59;;;;;;;506.70;341.52;;;;;;;;;;5008287;28;20118;-75
2021/03/26 11:23:30;;;;;;;489.63;327.42;;;;;;;;;;4980847;28;20516;-75
2021/03/26 11:26:05;;;;;;;497.67;335.10;;;;;;;;;;4975552;28;20023;-74
2021/03/26 11:28:47;;;;;;;499.13;337.77;;;;;;;;;;5015253;28;20053;-74
2021/03/26 11:31:25;;;;;;;496.73;332.90;;;;;;;;;;4984075;28;20565;-74
2021/03/26 11:34:09;;;;;;;496.15;330.20;;;;;;;;;;5000860;28;20069;-75
2021/03/26 11:36:35;;;;;;;503.77;334.45;;;;;;;;;;5011484;28;20026;-75
2021/03/26 11:39:03;;;;;;;503.10;338.70;;;;;;;;;;4994750;28;20044;-77
2021/03/26 11:41:39;;;;;;;493.05;339.00;;;;;;;;;;4993660;28;20029;-74
2021/03/26 11:44:06;;;;;;;498.52;350.88;;;;;;;;;;5008676;28;20105;-75
2021/03/26 11:46:37;;;;;;;498.63;347.65;;;;;;;;;;4993841;28;20010;-76
2021/03/26 11:49:13;;;;;;;490.45;333.02;;;;;;;;;;5000904;28;20040;-75
2021/03/26 11:51:41;;;;;;;495.15;336.73;;;;;;;;;;5004898;28;20038;-73
2021/03/26 11:54:26;;;;;;;494.55;342.20;;;;;;;;;;4989809;28;20428;-74
2021/03/26 11:56:58;;;;;;;494.08;336.67;;;;;;;;;;4982392;28;20113;-75
2021/03/26 11:59:53;;;;;;;498.92;342.63;;;;;;;;;;4979794;28;20014;-74
2021/03/26 12:02:19;;;;;;;500.23;350.77;;;;;;;;;;4979366;28;20038;-75
2021/03/26 12:04:50;;;;;;;500.40;342.70;;;;;;;;;;5011993;28;20026;-74
2021/03/26 12:07:18;;;;;;;499.60;349.95;;;;;;;;;;4980629;28;20034;-75
2021/03/26 12:10:07;;;;;;;500.88;351.77;;;;;;;;;;4972691;28;20442;-75
2021/03/26 12:13:03;;;;;;;501.02;343.35;;;;;;;;;;4971595;28;20030;-76
2021/03/26 12:15:31;;;;;;;497.63;340.58;;;;;;;;;;4980831;28;20038;-75
2021/03/26 12:17:57;;;;;;;506.05;340.90;;;;;;;;;;4993928;28;20068;-75
2021/03/26 12:20:28;;;;;;;496.05;339.15;;;;;;;;;;4988952;28;20050;-75
2021/03/26 12:22:59;;;;;;;487.23;328.35;;;;;;;;;;4992253;28;20117;-75
2021/03/26 12:25:31;;;;;;;486.42;320.65;;;;;;;;;;4977650;28;20137;-76
2021/03/26 12:28:00;;;;;;;491.60;332.98;;;;;;;;;;4973594;28;20022;-76
2021/03/26 12:30:29;;;;;;;498.02;340.55;;;;;;;;;;4981260;28;20411;-77
2021/03/26 12:33:16;;;;;;;493.35;343.50;;;;;;;;;;4973975;28;20030;-77
2021/03/26 12:35:44;;;;;;;490.13;331.63;;;;;;;;;;4979689;28;20033;-76
2021/03/26 12:38:29;;;;;;;494.80;341.73;;;;;;;;;;4994736;28;20033;-76
2021/03/26 12:40:55;;;;;;;489.95;332.85;;;;;;;;;;4995759;28;20025;-76
2021/03/26 12:43:38;;;;;;;494.75;333.58;;;;;;;;;;4998323;28;20026;-76
2021/03/26 12:46:12;;;;;;;497.83;340.08;;;;;;;;;;4994244;28;20038;-76
2021/03/26 12:48:43;;;;;;;497.67;336.98;;;;;;;;;;4981379;28;20049;-75
2021/03/26 12:51:16;;;;;;;500.77;340.42;;;;;;;;;;4994008;28;20026;-76
2021/03/26 12:53:46;;;;;;;499.38;336.98;;;;;;;;;;4995990;28;20038;-76
2021/03/26 12:56:23;;;;;;;506.95;344.60;;;;;;;;;;4992115;28;20076;-76
2021/03/26 12:58:48;;;;;;;502.88;348.67;;;;;;;;;;4976601;28;20026;-76
2021/03/26 13:01:28;;;;;;;495.33;339.27;;;;;;;;;;4979631;28;20353;-79
2021/03/26 13:04:03;;;;;;;507.25;349.27;;;;;;;;;;4988366;28;20057;-75
2021/03/26 13:06:36;;;;;;;499.10;335.23;;;;;;;;;;4989346;28;20120;-78
2021/03/26 13:09:18;;;;;;;500.20;340.63;;;;;;;;;;4975721;28;20059;-76
2021/03/26 13:11:45;;;;;;;496.42;332.90;;;;;;;;;;4995095;28;20113;-76
2021/03/26 13:14:19;;;;;;;497.98;337.42;;;;;;;;;;4978256;28;20041;-75
2021/03/26 13:16:49;;;;;;;493.52;332.73;;;;;;;;;;5010285;28;20030;-76
2021/03/26 13:19:22;;;;;;;498.90;334.10;;;;;;;;;;4979037;28;20030;-77
2021/03/26 13:22:01;;;;;;;501.98;344.35;;;;;;;;;;4987706;28;21000;-76
2021/03/26 13:24:36;;;;;;;500.23;336.70;;;;;;;;;;5000812;28;20042;-75
2021/03/26 13:27:20;;;;;;;500.08;339.45;;;;;;;;;;4998746;28;20065;-76
2021/03/26 13:29:51;;;;;;;497.88;332.35;;;;;;;;;;4997668;28;20030;-75
2021/03/26 13:32:17;;;;;;;495.63;330.48;;;;;;;;;;5007158;28;20026;-76
2021/03/26 13:34:47;;;;;;;497.67;336.75;;;;;;;;;;5006421;28;20627;-75
2021/03/26 13:37:20;;;;;;;495.50;333.73;;;;;;;;;;4989425;28;20053;-76
2021/03/26 13:39:49;;;;;;;503.73;335.85;;;;;;;;;;4985246;28;20058;-76
2021/03/26 13:42:25;;;;;;;501.80;335.83;;;;;;;;;;4991887;28;20045;-75
2021/03/26 13:45:09;;;;;;;503.63;334.48;;;;;;;;;;4999703;28;20537;-75
2021/03/26 13:47:44;;;;;;;498.50;329.25;;;;;;;;;;4998792;28;20076;-75
2021/03/26 13:50:16;;;;;;;498.67;333.98;;;;;;;;;;4982591;28;20450;-77
2021/03/26 13:52:55;;;;;;;498.10;331.95;;;;;;;;;;5001841;28;20045;-76
2021/03/26 13:55:27;;;;;;;496.02;331.33;;;;;;;;;;4996946;28;20125;-75
2021/03/26 13:57:58;;;;;;;504.27;341.27;;;;;;;;;;5002071;28;20065;-75
2021/03/26 14:00:26;;;;;;;505.60;345.95;;;;;;;;;;4995912;28;20033;-75
2021/03/26 14:02:57;;;;;;;504.00;350.35;;;;;;;;;;4978678;28;20120;-76
2021/03/26 14:05:29;;;;;;;504.80;354.40;;;;;;;;;;4979434;28;20470;-75
2021/03/26 14:08:08;;;;;;;500.13;346.38;;;;;;;;;;4972523;28;20554;-76
2021/03/26 14:10:58;;;;;;;501.10;348.25;;;;;;;;;;4984273;28;20024;-76
2021/03/26 14:13:27;;;;;;;500.88;338.67;;;;;;;;;;4977184;28;20116;-76
2021/03/26 14:16:19;;;;;;;510.63;349.33;;;;;;;;;;4964024;28;20129;-75
2021/03/26 14:18:48;;;;;;;498.23;338.45;;;;;;;;;;4985282;28;20064;-75
2021/03/26 14:21:29;;;;;;;499.73;346.52;;;;;;;;;;4975167;28;20679;-76
2021/03/26 14:23:57;;;;;;;499.63;344.15;;;;;;;;;;4962491;28;20041;-77
2021/03/26 14:26:38;;;;;;;492.23;329.02;;;;;;;;;;4972308;28;20031;-76
2021/03/26 14:29:25;;;;;;;503.73;340.27;;;;;;;;;;4973378;28;20019;-76
2021/03/26 14:31:51;;;;;;;497.42;337.00;;;;;;;;;;4977891;28;20099;-75
2021/03/26 14:34:22;;;;;;;490.85;326.17;;;;;;;;;;4958126;28;20027;-76